sensor_id;sensor_type;location;lat;lon;timestamp;P1;durP1;ratioP1;P2;durP2;ratioP2
17727;SDS011;8984;49.268;12.302;2022-07-21T00:02:19;10.15;;;7.15;;
17727;SDS011;8984;49.268;12.302;2022-07-21T00:04:46;9.27;;;7.10;;
17727;SDS011;8984;49.268;12.302;2022-07-21T00:07:13;13.40;;;7.43;;
17727;SDS011;8984;49.268;12.302;2022-07-21T00:09:40;12.52;;;7.32;;
17727;SDS011;8984;49.268;12.302;2022-07-21T00:12:07;9.30;;;7.30;;
17727;SDS011;8984;49.268;12.302;2022-07-21T00:14:35;13.15;;;7.65;;
17727;SDS011;8984;49.268;12.302;2022-07-21T00:17:02;10.27;;;8.18;;
17727;SDS011;8984;49.268;12.302;2022-07-21T00:19:29;12.98;;;7.55;;
17727;SDS011;8984;49.268;12.302;2022-07-21T00:21:56;10.15;;;7.18;;
17727;SDS011;8984;49.268;12.302;2022-07-21T00:24:23;11.68;;;7.85;;
17727;SDS011;8984;49.268;12.302;2022-07-21T00:26:49;13.45;;;7.80;;
17727;SDS011;8984;49.268;12.302;2022-07-21T00:29:16;11.07;;;7.45;;
17727;SDS011;8984;49.268;12.302;2022-07-21T00:31:44;13.70;;;7.28;;
17727;SDS011;8984;49.268;12.302;2022-07-21T00:34:11;9.52;;;7.07;;
17727;SDS011;8984;49.268;12.302;2022-07-21T00:36:38;8.13;;;7.05;;
17727;SDS011;8984;49.268;12.302;2022-07-21T00:39:05;10.32;;;6.85;;
17727;SDS011;8984;49.268;12.302;2022-07-21T00:41:32;15.65;;;7.18;;
17727;SDS011;8984;49.268;12.302;2022-07-21T00:43:59;16.17;;;6.85;;
17727;SDS011;8984;49.268;12.302;2022-07-21T00:46:27;14.45;;;6.95;;
17727;SDS011;8984;49.268;12.302;2022-07-21T00:48:55;12.57;;;7.28;;
17727;SDS011;8984;49.268;12.302;2022-07-21T00:51:22;9.90;;;7.15;;
17727;SDS011;8984;49.268;12.302;2022-07-21T00:53:49;13.77;;;7.40;;
17727;SDS011;8984;49.268;12.302;2022-07-21T00:56:15;11.93;;;6.70;;
17727;SDS011;8984;49.268;12.302;2022-07-21T00:58:43;10.02;;;7.10;;
17727;SDS011;8984;49.268;12.302;2022-07-21T01:01:10;13.05;;;6.85;;
17727;SDS011;8984;49.268;12.302;2022-07-21T01:03:37;10.43;;;6.75;;
17727;SDS011;8984;49.268;12.302;2022-07-21T01:06:05;12.75;;;7.28;;
17727;SDS011;8984;49.268;12.302;2022-07-21T01:08:32;8.55;;;6.82;;
17727;SDS011;8984;49.268;12.302;2022-07-21T01:10:59;10.75;;;7.20;;
17727;SDS011;8984;49.268;12.302;2022-07-21T01:13:26;8.30;;;6.90;;
17727;SDS011;8984;49.268;12.302;2022-07-21T01:15:53;9.50;;;6.82;;
17727;SDS011;8984;49.268;12.302;2022-07-21T01:18:19;12.25;;;7.15;;
17727;SDS011;8984;49.268;12.302;2022-07-21T01:20:49;9.65;;;6.78;;
17727;SDS011;8984;49.268;12.302;2022-07-21T01:23:19;9.02;;;6.60;;
17727;SDS011;8984;49.268;12.302;2022-07-21T01:25:46;14.30;;;7.05;;
17727;SDS011;8984;49.268;12.302;2022-07-21T01:28:14;9.65;;;6.78;;
17727;SDS011;8984;49.268;12.302;2022-07-21T01:30:41;13.25;;;7.00;;
17727;SDS011;8984;49.268;12.302;2022-07-21T01:33:08;9.57;;;6.43;;
17727;SDS011;8984;49.268;12.302;2022-07-21T01:35:35;8.30;;;6.50;;
17727;SDS011;8984;49.268;12.302;2022-07-21T01:38:02;9.15;;;6.70;;
17727;SDS011;8984;49.268;12.302;2022-07-21T01:40:31;8.23;;;5.82;;
17727;SDS011;8984;49.268;12.302;2022-07-21T01:43:15;8.00;;;5.90;;
17727;SDS011;8984;49.268;12.302;2022-07-21T01:45:41;8.45;;;5.80;;
17727;SDS011;8984;49.268;12.302;2022-07-21T01:48:08;7.35;;;5.68;;
17727;SDS011;8984;49.268;12.302;2022-07-21T01:50:35;10.65;;;6.22;;
17727;SDS011;8984;49.268;12.302;2022-07-21T01:53:02;9.40;;;5.43;;
17727;SDS011;8984;49.268;12.302;2022-07-21T01:55:30;9.48;;;6.45;;
17727;SDS011;8984;49.268;12.302;2022-07-21T01:58:00;10.48;;;6.00;;
17727;SDS011;8984;49.268;12.302;2022-07-21T02:00:27;10.85;;;6.70;;
17727;SDS011;8984;49.268;12.302;2022-07-21T02:02:53;8.63;;;6.80;;
17727;SDS011;8984;49.268;12.302;2022-07-21T02:05:20;8.82;;;6.00;;
17727;SDS011;8984;49.268;12.302;2022-07-21T02:07:48;9.68;;;6.05;;
17727;SDS011;8984;49.268;12.302;2022-07-21T02:10:15;10.50;;;6.55;;
17727;SDS011;8984;49.268;12.302;2022-07-21T02:12:43;7.28;;;5.95;;
17727;SDS011;8984;49.268;12.302;2022-07-21T02:15:10;7.57;;;5.75;;
17727;SDS011;8984;49.268;12.302;2022-07-21T02:17:37;9.20;;;5.93;;
17727;SDS011;8984;49.268;12.302;2022-07-21T02:20:04;9.10;;;6.25;;
17727;SDS011;8984;49.268;12.302;2022-07-21T02:22:31;7.07;;;6.38;;
17727;SDS011;8984;49.268;12.302;2022-07-21T02:24:58;8.95;;;6.40;;
17727;SDS011;8984;49.268;12.302;2022-07-21T02:27:25;8.70;;;6.28;;
17727;SDS011;8984;49.268;12.302;2022-07-21T02:29:53;8.40;;;6.15;;
17727;SDS011;8984;49.268;12.302;2022-07-21T02:32:20;13.75;;;6.15;;
17727;SDS011;8984;49.268;12.302;2022-07-21T02:34:47;7.95;;;6.75;;
17727;SDS011;8984;49.268;12.302;2022-07-21T02:37:14;6.07;;;5.28;;
17727;SDS011;8984;49.268;12.302;2022-07-21T02:39:40;9.75;;;6.80;;
17727;SDS011;8984;49.268;12.302;2022-07-21T02:42:08;9.18;;;6.15;;
17727;SDS011;8984;49.268;12.302;2022-07-21T02:44:35;14.95;;;7.15;;
17727;SDS011;8984;49.268;12.302;2022-07-21T02:47:03;7.15;;;5.80;;
17727;SDS011;8984;49.268;12.302;2022-07-21T02:49:30;8.90;;;6.10;;
17727;SDS011;8984;49.268;12.302;2022-07-21T02:51:57;7.03;;;6.10;;
17727;SDS011;8984;49.268;12.302;2022-07-21T02:54:24;12.10;;;7.30;;
17727;SDS011;8984;49.268;12.302;2022-07-21T02:56:51;9.10;;;6.43;;
17727;SDS011;8984;49.268;12.302;2022-07-21T02:59:18;8.15;;;6.43;;
17727;SDS011;8984;49.268;12.302;2022-07-21T03:01:45;10.13;;;5.93;;
17727;SDS011;8984;49.268;12.302;2022-07-21T03:04:13;9.95;;;6.25;;
17727;SDS011;8984;49.268;12.302;2022-07-21T03:06:40;7.93;;;6.13;;
17727;SDS011;8984;49.268;12.302;2022-07-21T03:09:08;6.47;;;5.65;;
17727;SDS011;8984;49.268;12.302;2022-07-21T03:11:35;7.95;;;6.53;;
17727;SDS011;8984;49.268;12.302;2022-07-21T03:14:02;8.85;;;6.75;;
17727;SDS011;8984;49.268;12.302;2022-07-21T03:16:29;7.82;;;5.93;;
17727;SDS011;8984;49.268;12.302;2022-07-21T03:18:56;8.55;;;6.57;;
17727;SDS011;8984;49.268;12.302;2022-07-21T03:21:24;13.63;;;6.35;;
17727;SDS011;8984;49.268;12.302;2022-07-21T03:23:50;7.03;;;6.30;;
17727;SDS011;8984;49.268;12.302;2022-07-21T03:26:17;9.05;;;7.55;;
17727;SDS011;8984;49.268;12.302;2022-07-21T03:28:44;12.50;;;7.88;;
17727;SDS011;8984;49.268;12.302;2022-07-21T03:31:11;10.02;;;7.22;;
17727;SDS011;8984;49.268;12.302;2022-07-21T03:33:38;10.38;;;6.75;;
17727;SDS011;8984;49.268;12.302;2022-07-21T03:36:05;9.75;;;6.75;;
17727;SDS011;8984;49.268;12.302;2022-07-21T03:38:34;11.30;;;6.40;;
17727;SDS011;8984;49.268;12.302;2022-07-21T03:41:01;8.10;;;6.93;;
17727;SDS011;8984;49.268;12.302;2022-07-21T03:43:28;8.43;;;6.68;;
17727;SDS011;8984;49.268;12.302;2022-07-21T03:45:55;10.88;;;7.18;;
17727;SDS011;8984;49.268;12.302;2022-07-21T03:48:21;8.40;;;6.93;;
17727;SDS011;8984;49.268;12.302;2022-07-21T03:50:48;10.52;;;6.85;;
17727;SDS011;8984;49.268;12.302;2022-07-21T03:53:15;9.35;;;7.38;;
17727;SDS011;8984;49.268;12.302;2022-07-21T03:55:43;7.95;;;6.60;;
17727;SDS011;8984;49.268;12.302;2022-07-21T03:58:11;8.05;;;7.00;;
17727;SDS011;8984;49.268;12.302;2022-07-21T04:00:39;9.75;;;6.93;;
17727;SDS011;8984;49.268;12.302;2022-07-21T04:03:07;10.40;;;6.55;;
17727;SDS011;8984;49.268;12.302;2022-07-21T04:05:34;8.85;;;6.90;;
17727;SDS011;8984;49.268;12.302;2022-07-21T04:08:02;10.27;;;6.93;;
17727;SDS011;8984;49.268;12.302;2022-07-21T04:10:32;7.95;;;6.45;;
17727;SDS011;8984;49.268;12.302;2022-07-21T04:13:02;10.77;;;6.70;;
17727;SDS011;8984;49.268;12.302;2022-07-21T04:15:31;8.93;;;6.82;;
17727;SDS011;8984;49.268;12.302;2022-07-21T04:17:58;13.82;;;7.28;;
17727;SDS011;8984;49.268;12.302;2022-07-21T04:20:25;7.38;;;6.22;;
17727;SDS011;8984;49.268;12.302;2022-07-21T04:22:52;10.15;;;6.25;;
17727;SDS011;8984;49.268;12.302;2022-07-21T04:25:19;9.20;;;5.95;;
17727;SDS011;8984;49.268;12.302;2022-07-21T04:27:48;9.05;;;5.90;;
17727;SDS011;8984;49.268;12.302;2022-07-21T04:30:17;10.27;;;5.82;;
17727;SDS011;8984;49.268;12.302;2022-07-21T04:32:45;8.93;;;6.18;;
17727;SDS011;8984;49.268;12.302;2022-07-21T04:35:12;10.88;;;6.47;;
17727;SDS011;8984;49.268;12.302;2022-07-21T04:37:40;10.93;;;5.57;;
17727;SDS011;8984;49.268;12.302;2022-07-21T04:40:08;6.70;;;5.30;;
17727;SDS011;8984;49.268;12.302;2022-07-21T04:42:36;6.25;;;5.32;;
17727;SDS011;8984;49.268;12.302;2022-07-21T04:45:04;6.18;;;5.00;;
17727;SDS011;8984;49.268;12.302;2022-07-21T04:47:34;5.75;;;4.88;;
17727;SDS011;8984;49.268;12.302;2022-07-21T04:50:08;7.78;;;5.10;;
17727;SDS011;8984;49.268;12.302;2022-07-21T04:52:35;6.47;;;4.28;;
17727;SDS011;8984;49.268;12.302;2022-07-21T04:55:02;5.00;;;4.50;;
17727;SDS011;8984;49.268;12.302;2022-07-21T04:57:29;5.78;;;3.80;;
17727;SDS011;8984;49.268;12.302;2022-07-21T04:59:56;5.82;;;3.70;;
17727;SDS011;8984;49.268;12.302;2022-07-21T05:02:23;7.32;;;3.85;;
17727;SDS011;8984;49.268;12.302;2022-07-21T05:04:51;4.47;;;3.90;;
17727;SDS011;8984;49.268;12.302;2022-07-21T05:07:18;6.65;;;4.00;;
17727;SDS011;8984;49.268;12.302;2022-07-21T05:09:44;4.82;;;4.05;;
17727;SDS011;8984;49.268;12.302;2022-07-21T05:12:11;4.15;;;3.30;;
17727;SDS011;8984;49.268;12.302;2022-07-21T05:14:38;5.47;;;3.60;;
17727;SDS011;8984;49.268;12.302;2022-07-21T05:17:05;4.75;;;3.20;;
17727;SDS011;8984;49.268;12.302;2022-07-21T05:19:31;3.35;;;2.90;;
17727;SDS011;8984;49.268;12.302;2022-07-21T05:21:59;3.03;;;2.75;;
17727;SDS011;8984;49.268;12.302;2022-07-21T05:24:26;5.00;;;2.50;;
17727;SDS011;8984;49.268;12.302;2022-07-21T05:26:53;5.40;;;3.90;;
17727;SDS011;8984;49.268;12.302;2022-07-21T05:29:20;5.35;;;3.20;;
17727;SDS011;8984;49.268;12.302;2022-07-21T05:31:46;5.55;;;3.25;;
17727;SDS011;8984;49.268;12.302;2022-07-21T05:34:13;5.20;;;2.90;;
17727;SDS011;8984;49.268;12.302;2022-07-21T05:36:40;3.50;;;2.97;;
17727;SDS011;8984;49.268;12.302;2022-07-21T05:39:08;4.82;;;3.20;;
17727;SDS011;8984;49.268;12.302;2022-07-21T05:41:35;3.65;;;2.85;;
17727;SDS011;8984;49.268;12.302;2022-07-21T05:44:02;4.28;;;2.85;;
17727;SDS011;8984;49.268;12.302;2022-07-21T05:46:28;5.78;;;2.78;;
17727;SDS011;8984;49.268;12.302;2022-07-21T05:48:55;5.68;;;3.20;;
17727;SDS011;8984;49.268;12.302;2022-07-21T05:51:22;4.00;;;2.70;;
17727;SDS011;8984;49.268;12.302;2022-07-21T05:53:49;3.30;;;2.50;;
17727;SDS011;8984;49.268;12.302;2022-07-21T05:56:17;3.63;;;2.53;;
17727;SDS011;8984;49.268;12.302;2022-07-21T05:58:44;5.47;;;2.70;;
17727;SDS011;8984;49.268;12.302;2022-07-21T06:01:10;4.97;;;2.55;;
17727;SDS011;8984;49.268;12.302;2022-07-21T06:03:39;3.92;;;2.45;;
17727;SDS011;8984;49.268;12.302;2022-07-21T06:06:07;3.17;;;2.30;;
17727;SDS011;8984;49.268;12.302;2022-07-21T06:08:36;3.83;;;2.45;;
17727;SDS011;8984;49.268;12.302;2022-07-21T06:11:03;4.47;;;3.03;;
17727;SDS011;8984;49.268;12.302;2022-07-21T06:13:31;3.00;;;2.47;;
17727;SDS011;8984;49.268;12.302;2022-07-21T06:15:58;4.70;;;2.92;;
17727;SDS011;8984;49.268;12.302;2022-07-21T06:18:25;4.15;;;2.88;;
17727;SDS011;8984;49.268;12.302;2022-07-21T06:20:52;3.40;;;3.10;;
17727;SDS011;8984;49.268;12.302;2022-07-21T06:23:19;4.07;;;3.05;;
17727;SDS011;8984;49.268;12.302;2022-07-21T06:25:45;3.00;;;2.70;;
17727;SDS011;8984;49.268;12.302;2022-07-21T06:28:12;4.45;;;3.25;;
17727;SDS011;8984;49.268;12.302;2022-07-21T06:30:40;3.35;;;3.05;;
17727;SDS011;8984;49.268;12.302;2022-07-21T06:33:07;3.25;;;2.95;;
17727;SDS011;8984;49.268;12.302;2022-07-21T06:35:34;4.25;;;3.17;;
17727;SDS011;8984;49.268;12.302;2022-07-21T06:38:01;3.63;;;3.13;;
17727;SDS011;8984;49.268;12.302;2022-07-21T06:40:28;3.90;;;3.05;;
17727;SDS011;8984;49.268;12.302;2022-07-21T06:42:55;3.67;;;3.10;;
17727;SDS011;8984;49.268;12.302;2022-07-21T06:45:22;5.05;;;3.30;;
17727;SDS011;8984;49.268;12.302;2022-07-21T06:47:50;4.68;;;3.20;;
17727;SDS011;8984;49.268;12.302;2022-07-21T06:50:26;4.63;;;3.10;;
17727;SDS011;8984;49.268;12.302;2022-07-21T06:52:52;4.28;;;3.65;;
17727;SDS011;8984;49.268;12.302;2022-07-21T06:55:19;3.97;;;3.15;;
17727;SDS011;8984;49.268;12.302;2022-07-21T06:57:46;3.63;;;3.33;;
17727;SDS011;8984;49.268;12.302;2022-07-21T07:00:13;3.90;;;3.20;;
17727;SDS011;8984;49.268;12.302;2022-07-21T07:02:43;4.43;;;3.30;;
17727;SDS011;8984;49.268;12.302;2022-07-21T07:05:11;8.32;;;3.50;;
17727;SDS011;8984;49.268;12.302;2022-07-21T07:07:38;5.78;;;4.05;;
17727;SDS011;8984;49.268;12.302;2022-07-21T07:10:05;8.93;;;4.28;;
17727;SDS011;8984;49.268;12.302;2022-07-21T07:12:33;4.75;;;3.78;;
17727;SDS011;8984;49.268;12.302;2022-07-21T07:15:00;6.88;;;4.05;;
17727;SDS011;8984;49.268;12.302;2022-07-21T07:17:27;5.68;;;4.07;;
17727;SDS011;8984;49.268;12.302;2022-07-21T07:19:54;7.43;;;4.15;;
17727;SDS011;8984;49.268;12.302;2022-07-21T07:22:22;7.55;;;4.40;;
17727;SDS011;8984;49.268;12.302;2022-07-21T07:24:49;5.45;;;4.03;;
17727;SDS011;8984;49.268;12.302;2022-07-21T07:27:16;6.60;;;4.45;;
17727;SDS011;8984;49.268;12.302;2022-07-21T07:29:43;7.82;;;4.88;;
17727;SDS011;8984;49.268;12.302;2022-07-21T07:32:10;8.50;;;5.03;;
17727;SDS011;8984;49.268;12.302;2022-07-21T07:34:36;8.70;;;4.72;;
17727;SDS011;8984;49.268;12.302;2022-07-21T07:37:03;7.63;;;4.97;;
17727;SDS011;8984;49.268;12.302;2022-07-21T07:39:31;8.13;;;5.30;;
17727;SDS011;8984;49.268;12.302;2022-07-21T07:41:58;8.52;;;5.30;;
17727;SDS011;8984;49.268;12.302;2022-07-21T07:44:25;8.57;;;4.78;;
17727;SDS011;8984;49.268;12.302;2022-07-21T07:46:52;6.97;;;4.50;;
17727;SDS011;8984;49.268;12.302;2022-07-21T07:49:18;8.52;;;5.28;;
17727;SDS011;8984;49.268;12.302;2022-07-21T07:51:45;8.13;;;5.75;;
17727;SDS011;8984;49.268;12.302;2022-07-21T07:54:13;7.07;;;4.78;;
17727;SDS011;8984;49.268;12.302;2022-07-21T07:56:41;8.23;;;5.50;;
17727;SDS011;8984;49.268;12.302;2022-07-21T07:59:08;8.77;;;6.00;;
17727;SDS011;8984;49.268;12.302;2022-07-21T08:01:35;6.70;;;5.13;;
17727;SDS011;8984;49.268;12.302;2022-07-21T08:04:02;9.70;;;6.00;;
17727;SDS011;8984;49.268;12.302;2022-07-21T08:06:29;11.43;;;5.20;;
17727;SDS011;8984;49.268;12.302;2022-07-21T08:08:56;7.47;;;5.50;;
17727;SDS011;8984;49.268;12.302;2022-07-21T08:11:22;12.57;;;6.82;;
17727;SDS011;8984;49.268;12.302;2022-07-21T08:13:51;7.80;;;5.78;;
17727;SDS011;8984;49.268;12.302;2022-07-21T08:16:18;7.63;;;5.40;;
17727;SDS011;8984;49.268;12.302;2022-07-21T08:18:45;7.03;;;5.75;;
17727;SDS011;8984;49.268;12.302;2022-07-21T08:21:12;7.95;;;5.60;;
17727;SDS011;8984;49.268;12.302;2022-07-21T08:23:39;8.93;;;6.40;;
17727;SDS011;8984;49.268;12.302;2022-07-21T08:26:06;10.38;;;6.15;;
17727;SDS011;8984;49.268;12.302;2022-07-21T08:28:32;7.18;;;5.93;;
17727;SDS011;8984;49.268;12.302;2022-07-21T08:31:01;7.35;;;5.78;;
17727;SDS011;8984;49.268;12.302;2022-07-21T08:33:27;7.82;;;5.90;;
17727;SDS011;8984;49.268;12.302;2022-07-21T08:35:54;6.80;;;5.90;;
17727;SDS011;8984;49.268;12.302;2022-07-21T08:38:21;8.73;;;5.63;;
17727;SDS011;8984;49.268;12.302;2022-07-21T08:40:49;9.63;;;6.55;;
17727;SDS011;8984;49.268;12.302;2022-07-21T08:43:16;9.35;;;7.28;;
17727;SDS011;8984;49.268;12.302;2022-07-21T08:45:42;9.57;;;7.35;;
17727;SDS011;8984;49.268;12.302;2022-07-21T08:48:11;10.02;;;7.53;;
17727;SDS011;8984;49.268;12.302;2022-07-21T08:50:43;8.05;;;6.30;;
17727;SDS011;8984;49.268;12.302;2022-07-21T08:53:09;7.60;;;6.20;;
17727;SDS011;8984;49.268;12.302;2022-07-21T08:55:37;11.18;;;7.75;;
17727;SDS011;8984;49.268;12.302;2022-07-21T08:58:06;10.50;;;7.20;;
17727;SDS011;8984;49.268;12.302;2022-07-21T09:00:35;10.00;;;7.22;;
17727;SDS011;8984;49.268;12.302;2022-07-21T09:03:14;9.88;;;8.15;;
17727;SDS011;8984;49.268;12.302;2022-07-21T09:05:43;10.65;;;8.05;;
17727;SDS011;8984;49.268;12.302;2022-07-21T09:08:28;9.07;;;7.70;;
17727;SDS011;8984;49.268;12.302;2022-07-21T09:11:07;7.82;;;7.00;;
17727;SDS011;8984;49.268;12.302;2022-07-21T09:13:38;9.10;;;6.82;;
17727;SDS011;8984;49.268;12.302;2022-07-21T09:16:06;10.05;;;7.55;;
17727;SDS011;8984;49.268;12.302;2022-07-21T09:18:35;9.27;;;8.38;;
17727;SDS011;8984;49.268;12.302;2022-07-21T09:21:15;7.75;;;7.00;;
17727;SDS011;8984;49.268;12.302;2022-07-21T09:23:43;11.02;;;9.07;;
17727;SDS011;8984;49.268;12.302;2022-07-21T09:26:10;9.85;;;6.88;;
17727;SDS011;8984;49.268;12.302;2022-07-21T09:28:37;8.27;;;7.25;;
17727;SDS011;8984;49.268;12.302;2022-07-21T09:31:06;9.00;;;7.25;;
17727;SDS011;8984;49.268;12.302;2022-07-21T09:33:37;10.25;;;7.50;;
17727;SDS011;8984;49.268;12.302;2022-07-21T09:36:05;11.15;;;8.13;;
17727;SDS011;8984;49.268;12.302;2022-07-21T09:38:34;9.98;;;8.25;;
17727;SDS011;8984;49.268;12.302;2022-07-21T09:41:06;10.82;;;8.88;;
17727;SDS011;8984;49.268;12.302;2022-07-21T09:43:36;10.15;;;8.10;;
17727;SDS011;8984;49.268;12.302;2022-07-21T09:46:08;9.00;;;7.57;;
17727;SDS011;8984;49.268;12.302;2022-07-21T09:48:42;9.90;;;8.00;;
17727;SDS011;8984;49.268;12.302;2022-07-21T09:51:21;8.55;;;7.07;;
17727;SDS011;8984;49.268;12.302;2022-07-21T09:53:50;9.10;;;8.20;;
17727;SDS011;8984;49.268;12.302;2022-07-21T09:56:20;8.55;;;7.75;;
17727;SDS011;8984;49.268;12.302;2022-07-21T09:58:48;10.70;;;8.07;;
17727;SDS011;8984;49.268;12.302;2022-07-21T10:01:17;9.38;;;7.97;;
17727;SDS011;8984;49.268;12.302;2022-07-21T10:03:47;11.48;;;8.05;;
17727;SDS011;8984;49.268;12.302;2022-07-21T10:06:15;15.93;;;8.73;;
17727;SDS011;8984;49.268;12.302;2022-07-21T10:08:44;9.93;;;8.45;;
17727;SDS011;8984;49.268;12.302;2022-07-21T10:11:11;11.02;;;9.05;;
17727;SDS011;8984;49.268;12.302;2022-07-21T10:13:38;12.25;;;9.23;;
17727;SDS011;8984;49.268;12.302;2022-07-21T10:16:05;11.35;;;8.73;;
17727;SDS011;8984;49.268;12.302;2022-07-21T10:18:35;11.95;;;8.90;;
17727;SDS011;8984;49.268;12.302;2022-07-21T10:21:10;11.55;;;9.43;;
17727;SDS011;8984;49.268;12.302;2022-07-21T10:23:47;11.38;;;10.18;;
17727;SDS011;8984;49.268;12.302;2022-07-21T10:26:18;13.55;;;9.30;;
17727;SDS011;8984;49.268;12.302;2022-07-21T10:28:45;11.27;;;8.95;;
17727;SDS011;8984;49.268;12.302;2022-07-21T10:31:13;10.85;;;8.88;;
17727;SDS011;8984;49.268;12.302;2022-07-21T10:33:52;10.02;;;8.98;;
17727;SDS011;8984;49.268;12.302;2022-07-21T10:39:12;11.13;;;9.70;;
17727;SDS011;8984;49.268;12.302;2022-07-21T10:41:48;10.95;;;9.15;;
17727;SDS011;8984;49.268;12.302;2022-07-21T10:47:10;12.15;;;10.50;;
17727;SDS011;8984;49.268;12.302;2022-07-21T10:49:43;11.05;;;9.55;;
17727;SDS011;8984;49.268;12.302;2022-07-21T10:55:26;10.38;;;9.38;;
17727;SDS011;8984;49.268;12.302;2022-07-21T11:00:52;9.95;;;8.07;;
17727;SDS011;8984;49.268;12.302;2022-07-21T11:03:22;10.55;;;8.77;;
17727;SDS011;8984;49.268;12.302;2022-07-21T11:09:05;10.48;;;9.32;;
17727;SDS011;8984;49.268;12.302;2022-07-21T11:11:36;9.85;;;8.85;;
17727;SDS011;8984;49.268;12.302;2022-07-21T11:14:07;10.30;;;9.30;;
17727;SDS011;8984;49.268;12.302;2022-07-21T11:16:57;12.07;;;9.48;;
17727;SDS011;8984;49.268;12.302;2022-07-21T11:19:31;12.07;;;10.52;;
17727;SDS011;8984;49.268;12.302;2022-07-21T11:22:01;10.68;;;9.57;;
17727;SDS011;8984;49.268;12.302;2022-07-21T11:24:30;10.85;;;9.75;;
17727;SDS011;8984;49.268;12.302;2022-07-21T11:26:59;10.68;;;9.57;;
17727;SDS011;8984;49.268;12.302;2022-07-21T11:29:28;10.77;;;9.40;;
17727;SDS011;8984;49.268;12.302;2022-07-21T11:31:56;12.25;;;10.93;;
17727;SDS011;8984;49.268;12.302;2022-07-21T11:34:23;11.30;;;9.48;;
17727;SDS011;8984;49.268;12.302;2022-07-21T11:36:57;12.10;;;10.80;;
17727;SDS011;8984;49.268;12.302;2022-07-21T11:39:25;11.13;;;9.77;;
17727;SDS011;8984;49.268;12.302;2022-07-21T11:41:52;10.57;;;9.50;;
17727;SDS011;8984;49.268;12.302;2022-07-21T11:44:25;10.20;;;8.90;;
17727;SDS011;8984;49.268;12.302;2022-07-21T11:46:52;13.80;;;9.07;;
17727;SDS011;8984;49.268;12.302;2022-07-21T11:49:21;10.23;;;9.02;;
17727;SDS011;8984;49.268;12.302;2022-07-21T11:51:50;11.23;;;10.10;;
17727;SDS011;8984;49.268;12.302;2022-07-21T11:54:24;11.77;;;9.63;;
17727;SDS011;8984;49.268;12.302;2022-07-21T11:56:53;13.20;;;11.32;;
17727;SDS011;8984;49.268;12.302;2022-07-21T11:59:21;15.80;;;10.73;;
17727;SDS011;8984;49.268;12.302;2022-07-21T12:01:50;12.45;;;9.88;;
17727;SDS011;8984;49.268;12.302;2022-07-21T12:04:28;11.45;;;9.70;;
17727;SDS011;8984;49.268;12.302;2022-07-21T12:07:00;11.07;;;9.30;;
17727;SDS011;8984;49.268;12.302;2022-07-21T12:09:28;11.52;;;10.32;;
17727;SDS011;8984;49.268;12.302;2022-07-21T12:11:55;11.50;;;10.30;;
17727;SDS011;8984;49.268;12.302;2022-07-21T12:17:09;11.10;;;9.90;;
17727;SDS011;8984;49.268;12.302;2022-07-21T12:19:36;13.75;;;12.18;;
17727;SDS011;8984;49.268;12.302;2022-07-21T12:22:03;15.32;;;11.30;;
17727;SDS011;8984;49.268;12.302;2022-07-21T12:24:47;13.05;;;11.15;;
17727;SDS011;8984;49.268;12.302;2022-07-21T12:27:19;11.60;;;10.48;;
17727;SDS011;8984;49.268;12.302;2022-07-21T12:29:46;12.88;;;11.48;;
17727;SDS011;8984;49.268;12.302;2022-07-21T12:32:38;12.57;;;10.82;;
17727;SDS011;8984;49.268;12.302;2022-07-21T12:35:21;12.48;;;11.27;;
17727;SDS011;8984;49.268;12.302;2022-07-21T12:37:53;11.65;;;10.45;;
17727;SDS011;8984;49.268;12.302;2022-07-21T12:40:25;14.27;;;12.35;;
17727;SDS011;8984;49.268;12.302;2022-07-21T12:43:02;11.88;;;10.68;;
17727;SDS011;8984;49.268;12.302;2022-07-21T12:45:43;14.15;;;12.75;;
17727;SDS011;8984;49.268;12.302;2022-07-21T12:48:16;15.15;;;12.98;;
17727;SDS011;8984;49.268;12.302;2022-07-21T12:50:56;12.52;;;11.02;;
17727;SDS011;8984;49.268;12.302;2022-07-21T12:53:29;14.38;;;10.95;;
17727;SDS011;8984;49.268;12.302;2022-07-21T12:55:56;13.07;;;11.38;;
17727;SDS011;8984;49.268;12.302;2022-07-21T12:58:23;12.27;;;10.98;;
17727;SDS011;8984;49.268;12.302;2022-07-21T13:00:50;11.85;;;10.65;;
17727;SDS011;8984;49.268;12.302;2022-07-21T13:03:19;12.32;;;10.60;;
17727;SDS011;8984;49.268;12.302;2022-07-21T13:05:45;12.30;;;10.93;;
17727;SDS011;8984;49.268;12.302;2022-07-21T13:08:12;12.88;;;10.98;;
17727;SDS011;8984;49.268;12.302;2022-07-21T13:10:39;12.60;;;11.30;;
17727;SDS011;8984;49.268;12.302;2022-07-21T13:13:06;13.70;;;11.10;;
17727;SDS011;8984;49.268;12.302;2022-07-21T13:15:33;12.27;;;10.50;;
17727;SDS011;8984;49.268;12.302;2022-07-21T13:18:00;10.00;;;9.00;;
17727;SDS011;8984;49.268;12.302;2022-07-21T13:20:28;13.60;;;10.68;;
17727;SDS011;8984;49.268;12.302;2022-07-21T13:22:56;12.93;;;11.57;;
17727;SDS011;8984;49.268;12.302;2022-07-21T13:25:22;13.35;;;10.95;;
17727;SDS011;8984;49.268;12.302;2022-07-21T13:27:49;14.05;;;10.20;;
17727;SDS011;8984;49.268;12.302;2022-07-21T13:30:16;9.77;;;8.77;;
17727;SDS011;8984;49.268;12.302;2022-07-21T13:32:44;11.23;;;10.13;;
17727;SDS011;8984;49.268;12.302;2022-07-21T13:35:11;11.30;;;10.05;;
17727;SDS011;8984;49.268;12.302;2022-07-21T13:37:40;13.35;;;11.23;;
17727;SDS011;8984;49.268;12.302;2022-07-21T13:40:07;13.25;;;10.77;;
17727;SDS011;8984;49.268;12.302;2022-07-21T13:42:35;11.30;;;9.35;;
17727;SDS011;8984;49.268;12.302;2022-07-21T13:45:03;10.10;;;8.55;;
17727;SDS011;8984;49.268;12.302;2022-07-21T13:47:32;10.95;;;9.13;;
17727;SDS011;8984;49.268;12.302;2022-07-21T13:49:59;10.30;;;9.20;;
17727;SDS011;8984;49.268;12.302;2022-07-21T13:52:26;11.18;;;9.55;;
17727;SDS011;8984;49.268;12.302;2022-07-21T13:54:54;9.75;;;8.70;;
17727;SDS011;8984;49.268;12.302;2022-07-21T13:57:21;10.57;;;8.88;;
17727;SDS011;8984;49.268;12.302;2022-07-21T13:59:48;9.20;;;8.30;;
17727;SDS011;8984;49.268;12.302;2022-07-21T14:02:15;9.55;;;8.65;;
17727;SDS011;8984;49.268;12.302;2022-07-21T14:04:42;11.65;;;8.93;;
17727;SDS011;8984;49.268;12.302;2022-07-21T14:07:09;12.90;;;10.52;;
17727;SDS011;8984;49.268;12.302;2022-07-21T14:09:38;11.55;;;9.05;;
17727;SDS011;8984;49.268;12.302;2022-07-21T14:12:06;10.75;;;9.38;;
17727;SDS011;8984;49.268;12.302;2022-07-21T14:14:34;12.20;;;9.55;;
17727;SDS011;8984;49.268;12.302;2022-07-21T14:17:02;9.65;;;8.65;;
17727;SDS011;8984;49.268;12.302;2022-07-21T14:19:29;11.63;;;8.38;;
17727;SDS011;8984;49.268;12.302;2022-07-21T14:21:55;11.15;;;7.45;;
17727;SDS011;8984;49.268;12.302;2022-07-21T14:24:22;8.68;;;7.78;;
17727;SDS011;8984;49.268;12.302;2022-07-21T14:27:10;10.43;;;8.13;;
17727;SDS011;8984;49.268;12.302;2022-07-21T14:29:37;14.38;;;7.93;;
17727;SDS011;8984;49.268;12.302;2022-07-21T14:32:04;7.88;;;7.07;;
17727;SDS011;8984;49.268;12.302;2022-07-21T14:34:31;7.93;;;7.10;;
17727;SDS011;8984;49.268;12.302;2022-07-21T14:36:58;7.88;;;7.07;;
17727;SDS011;8984;49.268;12.302;2022-07-21T14:39:25;8.18;;;6.63;;
17727;SDS011;8984;49.268;12.302;2022-07-21T14:41:52;8.88;;;7.97;;
17727;SDS011;8984;49.268;12.302;2022-07-21T14:44:20;8.32;;;6.72;;
17727;SDS011;8984;49.268;12.302;2022-07-21T14:46:47;9.20;;;7.25;;
17727;SDS011;8984;49.268;12.302;2022-07-21T14:49:14;8.38;;;7.28;;
17727;SDS011;8984;49.268;12.302;2022-07-21T14:51:41;8.90;;;8.00;;
17727;SDS011;8984;49.268;12.302;2022-07-21T14:54:07;8.63;;;7.53;;
17727;SDS011;8984;49.268;12.302;2022-07-21T14:56:34;10.38;;;6.97;;
17727;SDS011;8984;49.268;12.302;2022-07-21T14:59:01;8.90;;;7.25;;
17727;SDS011;8984;49.268;12.302;2022-07-21T15:01:30;7.80;;;7.00;;
17727;SDS011;8984;49.268;12.302;2022-07-21T15:03:56;9.90;;;6.93;;
17727;SDS011;8984;49.268;12.302;2022-07-21T15:06:23;8.85;;;7.05;;